Time;durP1;ratioP1;P1;durP2;ratioP2;P2;SDS_P1;SDS_P2;PMS_P1;PMS_P2;Temp;Humidity;BMP_temperature;BMP_pressure;BME280_temperature;BME280_humidity;BME280_pressure;Samples;Min_cycle;Max_cycle;Signal;HPM_P1;HPM_P2
2022/09/24 00:01:34;;;;;;;14.23;9.30;;;;;;;8.70;77.44;101409.54;1722226;82;21840;-89
2022/09/24 00:04:07;;;;;;;15.45;9.00;;;;;;;8.67;77.46;101410.70;1738632;82;20976;-89
2022/09/24 00:06:41;;;;;;;12.63;8.78;;;;;;;8.63;77.49;101408.36;1740665;82;21019;-90
2022/09/24 00:09:08;;;;;;;15.83;8.90;;;;;;;8.60;77.51;101408.67;1736275;82;21510;-89
2022/09/24 00:11:37;;;;;;;12.23;8.58;;;;;;;8.54;77.52;101407.56;1703450;83;21689;-89
2022/09/24 00:14:05;;;;;;;13.50;9.08;;;;;;;8.52;77.60;101410.94;1683915;82;21027;-89
2022/09/24 00:16:33;;;;;;;14.50;10.03;;;;;;;8.49;77.60;101407.77;1730145;82;21463;-89
2022/09/24 00:19:11;;;;;;;13.62;8.85;;;;;;;8.49;77.61;101405.57;1712940;82;20998;-88
2022/09/24 00:21:38;;;;;;;16.85;9.03;;;;;;;8.45;77.60;101398.41;1698702;83;21071;-89
2022/09/24 00:26:59;;;;;;;15.78;8.68;;;;;;;8.36;77.75;101397.54;1665550;86;21054;-89
2022/09/24 00:29:26;;;;;;;17.48;8.13;;;;;;;8.32;77.85;101389.95;1690692;84;20972;-88
2022/09/24 00:31:53;;;;;;;15.60;8.30;;;;;;;8.29;77.87;101395.05;1671761;85;21000;-89
2022/09/24 00:34:20;;;;;;;13.62;8.23;;;;;;;8.28;77.93;101396.31;1691983;84;20980;-89
2022/09/24 00:36:47;;;;;;;11.10;7.75;;;;;;;8.24;77.93;101392.66;1665592;85;21375;-88
2022/09/24 00:39:15;;;;;;;15.70;7.92;;;;;;;8.24;78.03;101394.35;1665669;85;21050;-88
2022/09/24 00:41:46;;;;;;;12.33;8.43;;;;;;;8.22;78.01;101390.38;1670869;84;20975;-88
2022/09/24 00:44:50;;;;;;;15.13;9.25;;;;;;;8.19;78.00;101387.61;1665515;85;20968;-88
2022/09/24 00:47:36;;;;;;;18.90;8.83;;;;;;;8.17;78.10;101387.53;1669466;84;21003;-88
2022/09/24 00:50:24;;;;;;;13.55;8.55;;;;;;;8.17;78.12;101384.02;1667274;84;21721;-89
2022/09/24 00:53:04;;;;;;;12.73;7.75;;;;;;;8.15;78.11;101377.81;1702254;83;20990;-90
2022/09/24 00:55:31;;;;;;;9.83;7.37;;;;;;;8.13;78.16;101375.12;1703837;83;21001;-88
2022/09/24 00:58:02;;;;;;;15.00;8.73;;;;;;;8.12;78.15;101371.11;1648390;86;21019;-88
2022/09/24 01:00:29;;;;;;;12.88;7.87;;;;;;;8.10;78.18;101370.15;1655644;84;21074;-88
2022/09/24 01:03:01;;;;;;;13.72;8.50;;;;;;;8.07;78.21;101372.23;1685555;84;21742;-88
2022/09/24 01:05:28;;;;;;;14.15;8.98;;;;;;;8.05;78.23;101372.58;1668868;84;21003;-88
2022/09/24 01:07:55;;;;;;;13.35;7.95;;;;;;;8.04;78.26;101371.19;1645790;85;20988;-88
2022/09/24 01:10:50;;;;;;;13.43;8.50;;;;;;;8.04;78.31;101371.19;1665251;84;21142;-88
2022/09/24 01:13:28;;;;;;;12.55;8.40;;;;;;;8.00;78.26;101363.60;1665730;85;20979;-88
2022/09/24 01:16:00;;;;;;;13.00;9.45;;;;;;;7.97;78.23;101363.02;1667184;84;21732;-89
2022/09/24 01:18:46;;;;;;;10.95;8.33;;;;;;;7.93;78.33;101359.78;1664455;85;21003;-88
2022/09/24 01:21:37;;;;;;;13.40;8.00;;;;;;;7.92;78.35;101363.25;1642868;85;21022;-89
2022/09/24 01:24:21;;;;;;;15.32;9.03;;;;;;;7.89;78.33;101364.41;1740070;81;20996;-89
2022/09/24 01:27:18;;;;;;;14.25;8.88;;;;;;;7.87;78.30;101361.25;1757245;80;20997;-89
2022/09/24 01:30:10;;;;;;;12.35;8.90;;;;;;;7.81;78.22;101353.08;1743155;80;21825;-89
2022/09/24 01:32:48;;;;;;;14.90;8.45;;;;;;;7.78;78.31;101352.55;1762815;80;20990;-89
2022/09/24 01:35:31;;;;;;;17.48;9.45;;;;;;;7.74;78.31;101347.57;1722835;81;21071;-89
2022/09/24 01:38:12;;;;;;;18.73;10.80;;;;;;;7.74;78.45;101349.30;1741998;82;21009;-89
2022/09/24 01:40:39;;;;;;;14.05;9.35;;;;;;;7.74;78.46;101334.89;1722072;81;21709;-89
2022/09/24 01:43:06;;;;;;;15.03;9.45;;;;;;;7.71;78.47;101343.91;1734942;82;21725;-89
2022/09/24 01:45:39;;;;;;;13.98;9.25;;;;;;;7.70;78.54;101336.47;1747297;82;21032;-89
2022/09/24 01:48:06;;;;;;;16.67;9.30;;;;;;;7.71;78.52;101337.36;1747561;82;20957;-89
2022/09/24 01:50:56;;;;;;;14.68;8.88;;;;;;;7.72;78.53;101340.05;1743214;82;20960;-89
2022/09/24 01:53:27;;;;;;;12.85;8.75;;;;;;;7.71;78.46;101339.55;1766213;80;20998;-89
2022/09/24 01:55:59;;;;;;;12.65;8.68;;;;;;;7.70;78.54;101338.20;1743989;81;21805;-89
2022/09/24 01:58:31;;;;;;;12.75;8.35;;;;;;;7.70;78.54;101340.40;1758311;81;20955;-89
2022/09/24 02:01:06;;;;;;;11.73;8.45;;;;;;;7.70;78.54;101341.71;1747351;81;20966;-90
2022/09/24 02:03:42;;;;;;;12.28;8.88;;;;;;;7.71;78.54;101343.91;1751941;80;21470;-90
2022/09/24 02:06:22;;;;;;;14.35;8.75;;;;;;;7.70;78.58;101336.89;1737877;81;21470;-89
2022/09/24 02:08:49;;;;;;;13.00;8.23;;;;;;;7.71;78.59;101338.25;1743288;82;21726;-89
2022/09/24 02:11:23;;;;;;;11.33;7.22;;;;;;;7.69;78.61;101339.02;1739423;82;21422;-89
2022/09/24 02:13:59;;;;;;;12.05;8.08;;;;;;;7.68;78.61;101342.05;1745431;81;21025;-89
2022/09/24 02:16:30;;;;;;;10.38;6.87;;;;;;;7.68;78.68;101341.17;1703270;83;20971;-89
2022/09/24 02:18:59;;;;;;;11.88;7.12;;;;;;;7.69;78.73;101339.02;1687430;84;21050;-89
2022/09/24 02:21:26;;;;;;;13.10;6.95;;;;;;;7.69;78.72;101340.32;1711227;83;21709;-89
2022/09/24 02:23:57;;;;;;;10.65;7.37;;;;;;;7.69;78.78;101335.97;1728421;81;21005;-89
2022/09/24 02:26:24;;;;;;;10.63;7.47;;;;;;;7.70;78.85;101335.16;1737660;82;21451;-89
2022/09/24 02:28:53;;;;;;;11.05;7.25;;;;;;;7.75;78.87;101337.59;1738298;82;21008;-89
2022/09/24 02:31:28;;;;;;;10.88;7.15;;;;;;;7.78;78.87;101328.95;1738515;80;21028;-88
2022/09/24 02:36:40;;;;;;;11.63;6.50;;;;;;;7.87;78.98;101328.48;1739266;80;21083;-89
2022/09/24 02:39:07;;;;;;;11.50;7.08;;;;;;;7.93;78.90;101334.00;1737926;82;21029;-89
2022/09/24 02:41:34;;;;;;;14.83;7.50;;;;;;;7.99;78.92;101330.33;1752721;80;20939;-89
2022/09/24 02:44:01;;;;;;;10.93;6.92;;;;;;;8.05;78.90;101333.25;1770099;81;20968;-90
2022/09/24 02:46:28;;;;;;;10.53;6.03;;;;;;;8.12;78.95;101322.17;1775919;79;22662;-89
2022/09/24 02:48:55;;;;;;;8.93;6.80;;;;;;;8.20;78.91;101325.13;1760815;80;20945;-90
2022/09/24 02:51:22;;;;;;;11.15;6.25;;;;;;;8.26;78.79;101320.17;1737110;80;20981;-89
2022/09/24 02:53:49;;;;;;;10.60;6.47;;;;;;;8.31;78.77;101321.67;1776373;79;20997;-89
2022/09/24 02:56:15;;;;;;;10.93;6.47;;;;;;;8.36;78.70;101321.04;1741303;80;21005;-88
2022/09/24 02:58:45;;;;;;;9.65;6.55;;;;;;;8.40;78.64;101326.01;1745986;80;21162;-88
2022/09/24 03:01:12;;;;;;;10.32;6.28;;;;;;;8.43;78.59;101317.39;1749604;80;21875;-88
2022/09/24 03:03:38;;;;;;;8.68;6.22;;;;;;;8.46;78.48;101317.53;1758403;80;21064;-88
2022/09/24 03:06:06;;;;;;;9.20;6.28;;;;;;;8.47;78.46;101312.36;1768487;80;20988;-88
2022/09/24 03:08:34;;;;;;;15.40;8.28;;;;;;;8.50;78.45;101311.58;1747040;82;20992;-88
2022/09/24 03:11:00;;;;;;;10.85;7.40;;;;;;;8.49;78.31;101314.63;1744179;80;21708;-89
2022/09/24 03:13:27;;;;;;;9.78;7.15;;;;;;;8.50;78.26;101316.83;1739799;82;21540;-89
2022/09/24 03:15:54;;;;;;;10.45;7.87;;;;;;;8.50;78.20;101314.20;1766595;79;20970;-89
2022/09/24 03:18:21;;;;;;;13.95;10.63;;;;;;;8.52;78.25;101316.09;1753418;80;21139;-89
2022/09/24 03:20:59;;;;;;;16.52;9.40;;;;;;;8.55;78.28;101314.87;1754901;79;21027;-88
2022/09/24 03:23:26;;;;;;;14.58;8.20;;;;;;;8.56;78.15;101308.81;1727950;82;22392;-88
2022/09/24 03:25:53;;;;;;;11.12;7.58;;;;;;;8.59;78.16;101309.77;1748865;80;20967;-89
2022/09/24 03:28:21;;;;;;;10.72;8.03;;;;;;;8.65;78.17;101306.09;1696501;83;21006;-88
2022/09/24 03:30:59;;;;;;;12.05;7.42;;;;;;;8.67;78.03;101304.03;1743305;82;20999;-89
2022/09/24 03:33:38;;;;;;;10.10;6.60;;;;;;;8.68;77.93;101308.84;1714291;82;21114;-88
2022/09/24 03:36:11;;;;;;;10.20;6.15;;;;;;;8.68;77.92;101302.29;1697052;82;22446;-88
2022/09/24 03:38:42;;;;;;;11.00;6.15;;;;;;;8.66;77.83;101302.22;1692312;84;21438;-88
2022/09/24 03:41:11;;;;;;;12.07;5.28;;;;;;;8.68;77.88;101300.98;1715326;83;20991;-88
2022/09/24 03:43:37;;;;;;;8.08;5.47;;;;;;;8.67;77.68;101304.42;1716642;83;20975;-89
2022/09/24 03:46:07;;;;;;;8.48;5.45;;;;;;;8.65;77.78;101308.31;1724988;81;20998;-89
2022/09/24 03:48:36;;;;;;;10.93;5.37;;;;;;;8.68;77.88;101308.42;1727061;82;21699;-89
2022/09/24 03:51:07;;;;;;;8.20;4.90;;;;;;;8.74;77.91;101306.47;1760954;80;20974;-89
2022/09/24 03:53:34;;;;;;;9.65;5.40;;;;;;;8.79;77.88;101306.67;1740521;80;21017;-88
2022/09/24 03:56:02;;;;;;;9.35;5.45;;;;;;;8.81;77.88;101301.95;1737670;82;20974;-89
2022/09/24 03:58:30;;;;;;;11.97;5.62;;;;;;;8.85;77.81;101301.67;1743602;80;21463;-89
2022/09/24 04:00:57;;;;;;;6.00;4.83;;;;;;;8.88;77.83;101296.55;1769564;80;21747;-89
2022/09/24 04:03:24;;;;;;;10.30;5.28;;;;;;;8.89;77.64;101299.64;1755154;80;20950;-89
2022/09/24 04:05:51;;;;;;;6.75;5.17;;;;;;;8.92;77.75;101299.35;1745718;82;20985;-89
2022/09/24 04:08:20;;;;;;;6.87;4.58;;;;;;;8.95;77.62;101304.73;1756578;80;21041;-89
2022/09/24 04:10:47;;;;;;;5.62;4.60;;;;;;;8.93;77.52;101302.47;1753257;80;21499;-89
2022/09/24 04:13:15;;;;;;;7.37;5.75;;;;;;;8.95;77.58;101307.75;1712735;82;21733;-89
2022/09/24 04:15:42;;;;;;;9.05;5.42;;;;;;;8.93;77.35;101298.53;1745412;80;21001;-89
2022/09/24 04:18:10;;;;;;;6.42;5.10;;;;;;;8.90;77.34;101297.09;1772406;80;21033;-89
2022/09/24 04:20:37;;;;;;;8.70;5.75;;;;;;;8.90;77.39;101293.58;1751253;80;20992;-89
2022/09/24 04:23:06;;;;;;;8.13;5.17;;;;;;;8.87;77.32;101294.33;1736423;82;20982;-88
2022/09/24 04:25:33;;;;;;;8.73;5.28;;;;;;;8.86;77.31;101299.11;1749010;80;21785;-89
2022/09/24 04:28:05;;;;;;;7.12;5.42;;;;;;;8.85;77.38;101297.73;1734696;81;21010;-89
2022/09/24 04:30:32;;;;;;;8.48;6.12;;;;;;;8.85;77.33;101301.67;1758947;80;20958;-89
2022/09/24 04:32:59;;;;;;;8.95;5.60;;;;;;;8.83;77.37;101302.91;1750079;80;21009;-89
2022/09/24 04:35:28;;;;;;;7.90;5.40;;;;;;;8.83;77.31;101303.34;1711655;82;21491;-90
2022/09/24 04:37:56;;;;;;;10.60;5.83;;;;;;;8.80;77.35;101301.89;1737975;82;21777;-89
2022/09/24 04:40:23;;;;;;;7.67;5.53;;;;;;;8.78;77.48;101301.81;1741301;82;21441;-89
2022/09/24 04:42:51;;;;;;;7.67;5.67;;;;;;;8.80;77.48;101300.58;1767151;80;21041;-89
2022/09/24 04:45:19;;;;;;;8.20;5.22;;;;;;;8.79;77.43;101301.00;1732339;82;21121;-87
2022/09/24 04:47:52;;;;;;;8.70;5.22;;;;;;;8.81;77.51;101297.13;1773478;79;20993;-89
2022/09/24 04:50:16;;;;;;;10.75;5.35;;;;;;;8.83;77.55;101306.84;1762583;80;22490;-88
2022/09/24 04:52:45;;;;;;;7.45;5.10;;;;;;;8.84;77.49;101299.86;1767827;80;20984;-86
2022/09/24 04:55:12;;;;;;;11.55;5.05;;;;;;;8.85;77.45;101295.99;1757536;80;21031;-89
2022/09/24 04:57:40;;;;;;;8.68;5.12;;;;;;;8.86;77.46;101293.86;1760933;80;20977;-88
2022/09/24 05:00:09;;;;;;;8.95;5.75;;;;;;;8.92;77.56;101296.73;1776758;80;20994;-86
2022/09/24 05:02:36;;;;;;;10.13;5.85;;;;;;;8.95;77.48;101294.23;1764627;80;21777;-85
2022/09/24 05:05:02;;;;;;;10.53;6.05;;;;;;;9.00;77.47;101290.89;1741483;81;20975;-86
2022/09/24 05:07:29;;;;;;;9.05;6.05;;;;;;;9.02;77.45;101284.86;1740570;80;21018;-85
2022/09/24 05:09:56;;;;;;;12.13;5.65;;;;;;;9.08;77.49;101287.72;1763383;80;20973;-86
2022/09/24 05:12:23;;;;;;;9.13;5.65;;;;;;;9.12;77.48;101289.66;1752822;81;21004;-84
2022/09/24 05:14:49;;;;;;;10.10;6.40;;;;;;;9.13;77.39;101284.86;1742587;80;22967;-88
2022/09/24 05:17:16;;;;;;;9.33;6.08;;;;;;;9.18;77.39;101289.39;1768474;79;21008;-86
2022/09/24 05:19:43;;;;;;;10.43;6.70;;;;;;;9.20;77.33;101286.02;1762493;80;20994;-86
2022/09/24 05:22:10;;;;;;;9.85;6.40;;;;;;;9.22;77.31;101288.70;1775930;80;21030;-85
2022/09/24 05:24:37;;;;;;;9.88;6.12;;;;;;;9.21;77.11;101289.09;1769079;80;21398;-84
2022/09/24 05:27:09;;;;;;;8.28;5.47;;;;;;;9.20;77.16;101288.64;1746965;81;21844;-88
2022/09/24 05:29:42;;;;;;;9.18;6.15;;;;;;;9.19;77.22;101290.77;1742001;80;20998;-85
2022/09/24 05:32:13;;;;;;;9.43;6.08;;;;;;;9.18;77.12;101294.64;1725601;80;21059;-88
2022/09/24 05:34:41;;;;;;;8.28;6.22;;;;;;;9.19;77.12;101286.83;1770247;80;20992;-89
2022/09/24 05:37:08;;;;;;;12.65;6.12;;;;;;;9.20;77.07;101289.95;1762077;81;21051;-87
2022/09/24 05:39:35;;;;;;;8.18;6.35;;;;;;;9.24;77.14;101290.97;1769902;80;21724;-84
2022/09/24 05:42:05;;;;;;;9.40;6.40;;;;;;;9.28;77.12;101294.19;1772192;81;20951;-85
2022/09/24 05:44:32;;;;;;;9.45;7.33;;;;;;;9.34;77.17;101293.98;1772226;80;21433;-87
2022/09/24 05:46:59;;;;;;;12.73;7.72;;;;;;;9.40;77.07;101289.39;1775868;80;21069;-87
2022/09/24 05:49:26;;;;;;;13.30;7.62;;;;;;;9.46;77.12;101293.98;1772650;80;20979;-87
2022/09/24 05:51:53;;;;;;;12.65;8.25;;;;;;;9.51;77.09;101304.27;1772448;80;21757;-88
2022/09/24 05:54:20;;;;;;;15.08;9.60;;;;;;;9.54;76.98;101300.45;1775223;80;20962;-84
2022/09/24 05:56:47;;;;;;;16.50;10.80;;;;;;;9.62;77.13;101299.42;1768845;80;20979;-87
2022/09/24 05:59:15;;;;;;;14.70;9.60;;;;;;;9.75;77.21;101292.89;1757357;80;20979;-84
2022/09/24 06:01:42;;;;;;;10.68;8.95;;;;;;;9.85;77.10;101293.30;1774558;80;20958;-88
2022/09/24 06:04:11;;;;;;;11.85;7.50;;;;;;;9.96;77.10;101288.40;1748343;80;21128;-84
2022/09/24 06:06:38;;;;;;;12.65;10.10;;;;;;;10.05;77.00;101295.31;1777227;80;20950;-88
2022/09/24 06:09:07;;;;;;;18.45;11.70;;;;;;;10.14;76.89;101290.81;1751169;80;21019;-85
2022/09/24 06:11:34;;;;;;;14.83;9.15;;;;;;;10.18;76.69;101295.77;1740525;82;20996;-88
2022/09/24 06:14:04;;;;;;;13.75;8.40;;;;;;;10.21;76.62;101287.56;1739920;80;21502;-84
2022/09/24 06:16:32;;;;;;;10.95;7.95;;;;;;;10.31;76.59;101291.44;1737581;82;21726;-85
2022/09/24 06:18:59;;;;;;;14.45;9.23;;;;;;;10.42;76.52;101290.49;1741677;82;21803;-85
2022/09/24 06:21:26;;;;;;;10.38;7.90;;;;;;;10.50;76.50;101292.95;1723241;80;20977;-89
2022/09/24 06:23:53;;;;;;;11.68;7.78;;;;;;;10.65;76.63;101289.52;1737433;82;21022;-89
2022/09/24 06:26:21;;;;;;;12.15;8.05;;;;;;;10.80;76.48;101288.24;1737758;82;21009;-90
2022/09/24 06:28:48;;;;;;;15.15;10.50;;;;;;;10.90;76.31;101287.68;1736634;82;21853;-88
2022/09/24 06:31:15;;;;;;;16.20;10.78;;;;;;;11.01;76.13;101290.66;1747093;82;21009;-86
2022/09/24 06:33:41;;;;;;;15.75;10.50;;;;;;;11.12;76.05;101286.62;1748329;80;21007;-88
2022/09/24 06:36:11;;;;;;;15.53;10.32;;;;;;;11.20;75.79;101283.80;1746413;80;21051;-88
2022/09/24 06:38:39;;;;;;;12.78;10.80;;;;;;;11.29;75.73;101283.20;1737128;81;21001;-91
2022/09/24 06:41:06;;;;;;;14.18;9.68;;;;;;;11.35;75.50;101289.97;1737328;81;21718;-87
2022/09/24 06:43:39;;;;;;;13.58;8.45;;;;;;;11.45;75.32;101288.53;1738219;82;20988;-88
2022/09/24 06:46:07;;;;;;;9.35;7.15;;;;;;;11.56;75.36;101280.52;1743338;81;21007;-87
2022/09/24 06:48:35;;;;;;;9.00;6.42;;;;;;;11.72;75.20;101285.80;1766179;80;21170;-89
2022/09/24 06:51:03;;;;;;;12.60;7.00;;;;;;;11.82;74.97;101285.22;1744653;82;21432;-90
2022/09/24 06:53:37;;;;;;;10.03;7.03;;;;;;;11.95;74.73;101281.63;1749177;80;21677;-88
2022/09/24 06:56:05;;;;;;;8.85;6.78;;;;;;;12.06;74.52;101282.81;1760736;80;20976;-90
2022/09/24 06:58:36;;;;;;;10.48;8.08;;;;;;;12.19;74.42;101289.33;1767027;80;20989;-85
2022/09/24 07:01:01;;;;;;;15.20;9.48;;;;;;;12.31;74.20;101283.04;1744841;81;20972;-86
2022/09/24 07:03:30;;;;;;;12.07;9.15;;;;;;;12.46;74.11;101279.91;1777151;79;20993;-89
2022/09/24 07:06:01;;;;;;;14.35;9.58;;;;;;;12.53;73.66;101283.17;1739452;80;21702;-88
2022/09/24 07:08:27;;;;;;;12.85;10.08;;;;;;;12.64;73.64;101284.34;1766589;80;21054;-87
2022/09/24 07:10:55;;;;;;;19.75;11.10;;;;;;;12.77;73.69;101283.34;1751001;80;20978;-87
2022/09/24 07:13:22;;;;;;;16.23;11.22;;;;;;;12.91;73.41;101286.30;1747454;81;21003;-88
2022/09/24 07:15:51;;;;;;;13.58;10.32;;;;;;;13.03;73.24;101281.32;1749202;81;21009;-89
2022/09/24 07:18:18;;;;;;;18.30;11.93;;;;;;;13.15;73.01;101278.94;1767292;81;21712;-86
2022/09/24 07:20:55;;;;;;;18.48;12.03;;;;;;;13.28;72.71;101278.80;1755638;80;20985;-87
2022/09/24 07:23:22;;;;;;;20.82;13.13;;;;;;;13.45;72.68;101281.84;1757153;79;20963;-87
2022/09/24 07:25:50;;;;;;;23.38;14.85;;;;;;;13.66;72.40;101280.08;1782165;80;21124;-87
2022/09/24 07:28:18;;;;;;;23.35;14.50;;;;;;;13.81;72.15;101279.50;1749319;81;21038;-89
2022/09/24 07:30:46;;;;;;;19.25;13.48;;;;;;;13.96;71.78;101285.54;1752788;80;21564;-89
2022/09/24 07:33:14;;;;;;;22.17;13.43;;;;;;;14.06;71.52;101282.22;1766614;81;20979;-89
2022/09/24 07:35:40;;;;;;;13.53;10.20;;;;;;;14.22;71.44;101278.53;1750835;81;21003;-89
2022/09/24 07:38:10;;;;;;;13.48;9.10;;;;;;;14.38;70.94;101284.58;1762177;80;20968;-89
2022/09/24 07:40:39;;;;;;;14.90;10.18;;;;;;;14.44;70.61;101279.38;1740813;82;21373;-88
2022/09/24 07:43:12;;;;;;;14.85;10.13;;;;;;;14.52;70.47;101272.89;1741068;82;22533;-89
2022/09/24 07:45:35;;;;;;;15.10;10.05;;;;;;;14.68;70.59;101279.39;1751007;80;20975;-89
2022/09/24 07:48:04;;;;;;;15.05;9.48;;;;;;;14.84;70.50;101274.77;1760935;80;21488;-89
2022/09/24 07:50:34;;;;;;;16.97;11.50;;;;;;;15.03;70.20;101277.71;1761751;79;21480;-85
2022/09/24 07:53:01;;;;;;;14.28;10.53;;;;;;;15.15;69.84;101281.89;1770052;80;21041;-88
2022/09/24 07:55:28;;;;;;;15.03;10.60;;;;;;;15.29;69.81;101272.79;1748743;81;21655;-88
2022/09/24 07:57:55;;;;;;;17.50;11.60;;;;;;;15.44;69.50;101271.67;1752464;80;20926;-90
2022/09/24 08:00:25;;;;;;;14.15;10.82;;;;;;;15.53;69.04;101279.75;1770944;80;20988;-90
2022/09/24 08:02:55;;;;;;;17.27;11.12;;;;;;;15.57;68.66;101278.03;1777417;80;20934;-90
2022/09/24 08:05:20;;;;;;;13.30;10.15;;;;;;;15.65;68.40;101277.68;1772072;80;20951;-88
2022/09/24 08:07:54;;;;;;;14.85;10.85;;;;;;;15.71;68.20;101276.87;1737976;81;21715;-88
2022/09/24 08:10:23;;;;;;;13.98;10.38;;;;;;;15.75;68.11;101278.75;1711554;82;21016;-90
2022/09/24 08:12:50;;;;;;;13.38;10.43;;;;;;;15.89;68.15;101281.55;1737723;82;21005;-88
2022/09/24 08:15:17;;;;;;;14.68;10.43;;;;;;;15.96;67.79;101279.88;1743069;82;21084;-88
2022/09/24 08:17:57;;;;;;;14.50;10.98;;;;;;;16.00;67.84;101282.56;1759728;80;21061;-88
2022/09/24 08:20:34;;;;;;;14.70;10.45;;;;;;;16.06;67.67;101280.41;1748445;80;21919;-88
2022/09/24 08:23:02;;;;;;;17.00;10.85;;;;;;;16.09;67.45;101280.02;1737958;82;20969;-87
2022/09/24 08:25:45;;;;;;;16.25;10.65;;;;;;;16.16;67.32;101282.31;1731496;82;21009;-90
2022/09/24 08:28:24;;;;;;;17.15;10.75;;;;;;;16.16;67.09;101284.05;1716404;81;21453;-89
2022/09/24 08:31:17;;;;;;;16.73;10.35;;;;;;;16.21;67.00;101287.21;1729783;82;21495;-88
2022/09/24 08:33:49;;;;;;;16.05;11.70;;;;;;;16.24;66.83;101286.38;1712314;83;21003;-89
2022/09/24 08:36:18;;;;;;;11.95;8.30;;;;;;;16.23;66.74;101288.11;1729118;82;20977;-89
2022/09/24 08:38:46;;;;;;;12.00;8.38;;;;;;;16.26;66.49;101288.16;1707302;83;20979;-89
2022/09/24 08:41:44;;;;;;;12.63;9.25;;;;;;;16.26;66.17;101285.95;1705850;82;21016;-87
2022/09/24 08:47:21;;;;;;;10.72;8.60;;;;;;;16.27;66.15;101288.63;1705460;82;21066;-90
2022/09/24 08:49:39;;;;;;;9.60;7.70;;;;;;;16.31;65.49;101291.77;1671115;85;21014;-88
2022/09/24 08:52:32;;;;;;;11.88;8.15;;;;;;;16.27;65.08;101293.02;1628115;88;21373;-88
2022/09/24 08:55:02;;;;;;;10.20;7.05;;;;;;;16.27;65.27;101292.61;1662138;84;21001;-90
2022/09/24 08:57:29;;;;;;;11.57;8.60;;;;;;;16.36;64.92;101293.57;1652413;84;21501;-90
2022/09/24 08:59:55;;;;;;;13.80;9.55;;;;;;;16.40;65.00;101292.27;1652810;84;22564;-90
2022/09/24 09:02:52;;;;;;;11.00;7.78;;;;;;;16.49;64.92;101288.38;1690134;83;21003;-88
2022/09/24 09:05:49;;;;;;;9.03;6.00;;;;;;;16.54;64.79;101287.55;1688303;84;21026;-91
2022/09/24 09:08:29;;;;;;;7.25;6.00;;;;;;;16.58;64.18;101289.35;1637774;86;21070;-89
2022/09/24 09:11:14;;;;;;;10.30;5.92;;;;;;;16.59;64.00;101289.79;1688500;82;20982;-90
2022/09/24 09:15:10;;;;;;;;;;;;;;;;;;;;;
2022/09/24 09:17:27;;;;;;;12.03;7.58;;;;;;;16.56;63.64;101285.80;1506569;94;21498;-92
2022/09/24 09:20:49;;;;;;;11.63;7.40;;;;;;;16.49;63.66;101281.73;1582715;90;21033;-94
2022/09/24 09:23:43;;;;;;;9.30;7.10;;;;;;;16.49;63.67;101286.16;1558010;91;21080;-95
2022/09/24 09:46:06;;;;;;;9.43;4.67;;;;;;;16.28;61.92;101286.41;1613990;88;21070;-91
2022/09/24 09:48:53;;;;;;;6.92;4.72;;;;;;;16.29;61.69;101285.95;1616798;86;21898;-91
2022/09/24 09:51:20;;;;;;;11.22;4.80;;;;;;;16.37;61.73;101294.00;1628455;86;21488;-92
2022/09/24 09:54:06;;;;;;;5.33;3.95;;;;;;;16.49;61.80;101291.48;1698178;83;21007;-92
2022/09/24 09:56:35;;;;;;;5.75;3.45;;;;;;;16.60;61.17;101291.59;1708137;83;21003;-91
2022/09/24 09:59:17;;;;;;;5.45;3.30;;;;;;;16.67;60.67;101292.09;1676152;84;21762;-91
2022/09/24 10:01:48;;;;;;;4.03;3.50;;;;;;;16.74;60.09;101283.72;1651165;86;20972;-89
2022/09/24 10:04:38;;;;;;;4.97;4.45;;;;;;;16.76;59.59;101274.89;1680624;85;21082;-91
2022/09/24 10:07:12;;;;;;;5.42;4.42;;;;;;;16.76;59.49;101280.63;1661374;85;20976;-89
2022/09/24 10:09:41;;;;;;;5.25;3.70;;;;;;;16.72;59.32;101282.36;1740837;82;21001;-91
2022/09/24 10:12:23;;;;;;;6.08;3.90;;;;;;;16.78;59.05;101282.44;1741284;82;22561;-92
2022/09/24 10:15:02;;;;;;;6.15;2.83;;;;;;;16.81;59.01;101281.56;1698489;83;20954;-92
2022/09/24 10:17:36;;;;;;;5.08;3.15;;;;;;;16.87;58.89;101277.23;1704562;84;20973;-90
2022/09/24 10:23:47;;;;;;;5.33;3.75;;;;;;;16.97;58.42;101277.27;1696297;84;20484;-89
2022/09/24 10:30:32;;;;;;;4.78;3.00;;;;;;;17.08;58.19;101273.83;1714351;83;20956;-90
2022/09/24 10:33:03;;;;;;;6.35;3.60;;;;;;;17.19;57.97;101275.65;1755680;80;20978;-90
2022/09/24 10:35:34;;;;;;;4.95;2.95;;;;;;;17.31;57.94;101274.86;1757723;80;20999;-91
2022/09/24 10:38:04;;;;;;;3.58;2.80;;;;;;;17.39;57.88;101268.67;1719759;81;20975;-91
2022/09/24 10:40:47;;;;;;;10.72;8.13;;;;;;;17.46;57.74;101265.61;1694173;81;21702;-89
2022/09/24 10:43:19;;;;;;;5.58;3.17;;;;;;;17.55;57.51;101266.99;1757271;81;21508;-89
2022/09/24 10:46:04;;;;;;;4.62;3.60;;;;;;;17.61;57.40;101265.68;1750930;81;20995;-89
2022/09/24 10:48:50;;;;;;;4.87;3.70;;;;;;;17.68;57.21;101263.91;1725911;80;21190;-90
2022/09/24 10:51:37;;;;;;;4.67;2.37;;;;;;;17.68;56.82;101262.58;1746643;80;21437;-88
2022/09/24 10:54:15;;;;;;;3.60;2.25;;;;;;;17.67;56.73;101265.70;1689488;83;21941;-88
2022/09/24 10:56:50;;;;;;;1.98;1.70;;;;;;;17.68;56.21;101267.91;1681099;84;21025;-86
2022/09/24 10:59:43;;;;;;;3.45;2.00;;;;;;;17.62;55.40;101267.89;1662453;86;21587;-83
2022/09/24 11:02:30;;;;;;;4.22;2.20;;;;;;;17.56;54.72;101262.55;1688003;84;21440;-87
2022/09/24 11:04:59;;;;;;;4.95;2.22;;;;;;;17.46;54.74;101260.30;1684949;83;21027;-84
2022/09/24 11:07:37;;;;;;;4.60;2.55;;;;;;;17.44;54.61;101258.06;1608570;86;21631;-85
2022/09/24 11:10:21;;;;;;;3.67;2.27;;;;;;;17.42;54.65;101257.17;1625984;88;21019;-86
2022/09/24 11:13:14;;;;;;;5.53;2.47;;;;;;;17.45;54.72;101253.17;1626907;87;21050;-84
2022/09/24 11:16:16;;;;;;;3.05;2.27;;;;;;;17.50;54.54;101259.42;1658448;85;21031;-86
2022/09/24 11:19:06;;;;;;;5.25;3.47;;;;;;;17.53;54.19;101254.53;1651772;85;21079;-84
2022/09/24 11:22:14;;;;;;;7.47;5.15;;;;;;;17.45;53.73;101252.73;1651622;85;21741;-86
2022/09/24 11:25:21;;;;;;;5.95;5.05;;;;;;;17.35;53.67;101254.03;1648590;83;21070;-84
2022/09/24 11:28:20;;;;;;;6.47;4.22;;;;;;;17.22;53.91;101250.41;1635287;86;21046;-86
2022/09/24 11:31:15;;;;;;;6.75;4.15;;;;;;;17.13;53.69;101255.67;1667445;82;21590;-84
2022/09/24 11:34:11;;;;;;;13.68;9.85;;;;;;;17.13;53.91;101256.55;1726748;80;21052;-84
2022/09/24 11:37:02;;;;;;;9.03;3.62;;;;;;;17.24;53.81;101253.96;1739523;80;21692;-86
2022/09/24 11:39:34;;;;;;;6.03;3.90;;;;;;;17.36;53.45;101253.13;1744150;80;20988;-84
2022/09/24 11:42:32;;;;;;;7.62;5.97;;;;;;;17.52;53.27;101248.78;1689274;84;21007;-84
2022/09/24 11:45:25;;;;;;;6.15;5.47;;;;;;;17.69;53.21;101247.95;1730945;81;27372;-84
2022/09/24 11:48:03;;;;;;;5.55;3.95;;;;;;;17.92;53.26;101240.95;1734556;81;20981;-86
2022/09/24 11:51:09;;;;;;;4.87;3.72;;;;;;;18.06;53.06;101245.89;1730476;82;21898;-84
2022/09/24 11:53:44;;;;;;;6.00;3.70;;;;;;;18.10;52.98;101241.00;1737456;80;21041;-84
2022/09/24 11:56:22;;;;;;;7.90;5.70;;;;;;;18.09;52.78;101244.99;1737519;82;21002;-87
2022/09/24 11:58:59;;;;;;;14.28;8.25;;;;;;;18.10;52.62;101241.45;1737552;81;21051;-87
2022/09/24 12:01:26;;;;;;;8.73;6.53;;;;;;;18.12;52.60;101239.23;1742283;81;21084;-86
2022/09/24 12:04:19;;;;;;;9.55;7.53;;;;;;;18.20;52.47;101242.78;1740711;80;22399;-84
2022/09/24 12:07:03;;;;;;;5.25;4.03;;;;;;;18.30;52.29;101242.80;1765210;80;21459;-86
2022/09/24 12:09:38;;;;;;;6.00;3.85;;;;;;;18.33;52.03;101241.03;1738254;80;21054;-86
2022/09/24 12:12:19;;;;;;;5.85;3.55;;;;;;;18.35;51.66;101243.70;1762103;80;20963;-84
2022/09/24 12:15:00;;;;;;;6.25;3.35;;;;;;;18.40;51.59;101237.48;1739518;80;21021;-84
2022/09/24 12:17:48;;;;;;;6.83;3.10;;;;;;;18.48;51.26;101241.48;1744404;80;21170;-85
2022/09/24 12:20:30;;;;;;;3.95;3.25;;;;;;;18.42;50.87;101237.49;1737735;82;20981;-84
2022/09/24 12:23:03;;;;;;;5.83;3.60;;;;;;;18.43;51.10;101239.25;1734881;81;21455;-87
2022/09/24 12:25:33;;;;;;;4.95;3.75;;;;;;;18.57;51.09;101244.15;1732884;80;20993;-86
2022/09/24 12:28:02;;;;;;;5.62;3.25;;;;;;;18.65;50.92;101237.48;1725686;81;20993;-84
2022/09/24 12:33:39;;;;;;;3.12;2.58;;;;;;;18.82;50.45;101230.83;1742177;81;21033;-86